sensor_id;sensor_type;location;lat;lon;timestamp;temperature;humidity
13992;DHT22;7070;53.586;9.692;2023-06-05T00:00:06;10.00;74.40
13992;DHT22;7070;53.586;9.692;2023-06-05T00:02:33;9.90;75.20
13992;DHT22;7070;53.586;9.692;2023-06-05T00:04:59;9.80;75.30
13992;DHT22;7070;53.586;9.692;2023-06-05T00:07:27;9.80;75.40
13992;DHT22;7070;53.586;9.692;2023-06-05T00:09:55;9.80;75.60
13992;DHT22;7070;53.586;9.692;2023-06-05T00:12:22;9.70;75.60
13992;DHT22;7070;53.586;9.692;2023-06-05T00:14:49;9.80;75.70
13992;DHT22;7070;53.586;9.692;2023-06-05T00:17:16;9.70;75.80
13992;DHT22;7070;53.586;9.692;2023-06-05T00:19:43;9.60;75.70
13992;DHT22;7070;53.586;9.692;2023-06-05T00:22:10;9.60;75.70
13992;DHT22;7070;53.586;9.692;2023-06-05T00:24:36;9.60;75.70
13992;DHT22;7070;53.586;9.692;2023-06-05T00:27:06;9.60;75.60
13992;DHT22;7070;53.586;9.692;2023-06-05T00:29:33;9.60;75.60
13992;DHT22;7070;53.586;9.692;2023-06-05T00:32:00;9.50;75.60
13992;DHT22;7070;53.586;9.692;2023-06-05T00:34:26;9.40;75.50
13992;DHT22;7070;53.586;9.692;2023-06-05T00:36:53;9.40;75.50
13992;DHT22;7070;53.586;9.692;2023-06-05T00:39:20;9.30;75.50
13992;DHT22;7070;53.586;9.692;2023-06-05T00:41:47;9.30;75.50
13992;DHT22;7070;53.586;9.692;2023-06-05T00:44:17;9.30;75.50
13992;DHT22;7070;53.586;9.692;2023-06-05T00:46:44;9.20;75.50
13992;DHT22;7070;53.586;9.692;2023-06-05T00:49:12;9.20;75.50
13992;DHT22;7070;53.586;9.692;2023-06-05T00:51:40;9.10;75.50
13992;DHT22;7070;53.586;9.692;2023-06-05T00:54:08;9.00;75.50
13992;DHT22;7070;53.586;9.692;2023-06-05T00:56:35;9.10;75.70
13992;DHT22;7070;53.586;9.692;2023-06-05T00:59:02;9.10;75.80
13992;DHT22;7070;53.586;9.692;2023-06-05T01:01:31;9.00;75.90
13992;DHT22;7070;53.586;9.692;2023-06-05T01:03:59;9.00;76.10
13992;DHT22;7070;53.586;9.692;2023-06-05T01:06:27;9.00;76.10
13992;DHT22;7070;53.586;9.692;2023-06-05T01:08:57;9.00;76.10
13992;DHT22;7070;53.586;9.692;2023-06-05T01:11:28;9.10;76.30
13992;DHT22;7070;53.586;9.692;2023-06-05T01:14:05;9.00;76.30
13992;DHT22;7070;53.586;9.692;2023-06-05T01:16:35;9.00;76.40
13992;DHT22;7070;53.586;9.692;2023-06-05T01:19:03;9.10;76.60
13992;DHT22;7070;53.586;9.692;2023-06-05T01:21:32;9.00;76.50
13992;DHT22;7070;53.586;9.692;2023-06-05T01:24:00;9.00;77.30
13992;DHT22;7070;53.586;9.692;2023-06-05T01:26:36;9.10;76.70
13992;DHT22;7070;53.586;9.692;2023-06-05T01:29:06;9.10;76.60
13992;DHT22;7070;53.586;9.692;2023-06-05T01:31:34;9.10;76.80
13992;DHT22;7070;53.586;9.692;2023-06-05T01:34:04;9.10;76.90
13992;DHT22;7070;53.586;9.692;2023-06-05T01:36:33;9.10;76.80
13992;DHT22;7070;53.586;9.692;2023-06-05T01:39:04;9.10;76.80
13992;DHT22;7070;53.586;9.692;2023-06-05T01:41:31;9.10;77.10
13992;DHT22;7070;53.586;9.692;2023-06-05T01:43:59;9.10;77.10
13992;DHT22;7070;53.586;9.692;2023-06-05T01:46:27;9.00;77.00
13992;DHT22;7070;53.586;9.692;2023-06-05T01:48:54;9.10;77.20
13992;DHT22;7070;53.586;9.692;2023-06-05T01:51:21;9.10;77.10
13992;DHT22;7070;53.586;9.692;2023-06-05T01:53:48;9.10;77.10
13992;DHT22;7070;53.586;9.692;2023-06-05T01:56:17;9.10;77.20
13992;DHT22;7070;53.586;9.692;2023-06-05T01:58:46;9.00;77.10
13992;DHT22;7070;53.586;9.692;2023-06-05T02:01:13;9.10;77.20
13992;DHT22;7070;53.586;9.692;2023-06-05T02:03:42;9.00;77.20
13992;DHT22;7070;53.586;9.692;2023-06-05T02:06:13;9.00;77.30
13992;DHT22;7070;53.586;9.692;2023-06-05T02:08:41;9.00;77.20
13992;DHT22;7070;53.586;9.692;2023-06-05T02:11:08;9.00;77.40
13992;DHT22;7070;53.586;9.692;2023-06-05T02:13:37;9.00;77.50
13992;DHT22;7070;53.586;9.692;2023-06-05T02:16:04;9.10;77.70
13992;DHT22;7070;53.586;9.692;2023-06-05T02:18:32;9.00;77.80
13992;DHT22;7070;53.586;9.692;2023-06-05T02:21:03;9.00;77.80
13992;DHT22;7070;53.586;9.692;2023-06-05T02:23:30;9.00;77.60
13992;DHT22;7070;53.586;9.692;2023-06-05T02:25:57;9.00;77.70
13992;DHT22;7070;53.586;9.692;2023-06-05T02:28:24;9.00;77.70
13992;DHT22;7070;53.586;9.692;2023-06-05T02:30:54;9.00;77.60
13992;DHT22;7070;53.586;9.692;2023-06-05T02:33:20;9.00;78.40
13992;DHT22;7070;53.586;9.692;2023-06-05T02:35:48;9.00;77.60
13992;DHT22;7070;53.586;9.692;2023-06-05T02:38:15;9.00;77.80
13992;DHT22;7070;53.586;9.692;2023-06-05T02:40:42;9.00;77.80
13992;DHT22;7070;53.586;9.692;2023-06-05T02:43:09;8.90;77.80
13992;DHT22;7070;53.586;9.692;2023-06-05T02:45:37;8.90;77.90
13992;DHT22;7070;53.586;9.692;2023-06-05T02:48:05;8.90;77.80
13992;DHT22;7070;53.586;9.692;2023-06-05T02:50:32;8.90;78.00
13992;DHT22;7070;53.586;9.692;2023-06-05T02:52:59;8.90;78.00
13992;DHT22;7070;53.586;9.692;2023-06-05T02:55:26;8.90;78.70
13992;DHT22;7070;53.586;9.692;2023-06-05T02:57:55;8.90;78.00
13992;DHT22;7070;53.586;9.692;2023-06-05T03:00:23;8.90;78.00
13992;DHT22;7070;53.586;9.692;2023-06-05T03:02:51;8.90;77.90
13992;DHT22;7070;53.586;9.692;2023-06-05T03:05:19;8.80;77.90
13992;DHT22;7070;53.586;9.692;2023-06-05T03:07:50;8.90;77.90
13992;DHT22;7070;53.586;9.692;2023-06-05T03:10:19;8.80;78.00
13992;DHT22;7070;53.586;9.692;2023-06-05T03:12:46;8.90;78.10
13992;DHT22;7070;53.586;9.692;2023-06-05T03:15:13;8.80;78.20
13992;DHT22;7070;53.586;9.692;2023-06-05T03:17:40;8.90;78.30
13992;DHT22;7070;53.586;9.692;2023-06-05T03:20:08;8.90;78.30
13992;DHT22;7070;53.586;9.692;2023-06-05T03:22:37;8.80;78.30
13992;DHT22;7070;53.586;9.692;2023-06-05T03:25:05;8.90;78.40
13992;DHT22;7070;53.586;9.692;2023-06-05T03:27:33;8.90;78.40
13992;DHT22;7070;53.586;9.692;2023-06-05T03:30:01;8.90;78.50
13992;DHT22;7070;53.586;9.692;2023-06-05T03:32:28;8.90;78.50
13992;DHT22;7070;53.586;9.692;2023-06-05T03:34:55;8.90;78.50
13992;DHT22;7070;53.586;9.692;2023-06-05T03:37:22;8.90;78.50
13992;DHT22;7070;53.586;9.692;2023-06-05T03:39:50;9.00;78.70
13992;DHT22;7070;53.586;9.692;2023-06-05T03:42:17;9.00;78.60
13992;DHT22;7070;53.586;9.692;2023-06-05T03:44:44;9.00;79.40
13992;DHT22;7070;53.586;9.692;2023-06-05T03:47:11;9.00;78.70
13992;DHT22;7070;53.586;9.692;2023-06-05T03:49:40;9.00;78.70
13992;DHT22;7070;53.586;9.692;2023-06-05T03:52:11;9.10;78.70
13992;DHT22;7070;53.586;9.692;2023-06-05T03:54:40;9.10;78.80
13992;DHT22;7070;53.586;9.692;2023-06-05T03:57:12;9.10;78.90
13992;DHT22;7070;53.586;9.692;2023-06-05T03:59:40;9.10;78.80
13992;DHT22;7070;53.586;9.692;2023-06-05T04:02:07;9.20;78.90
13992;DHT22;7070;53.586;9.692;2023-06-05T04:04:34;9.20;79.00
13992;DHT22;7070;53.586;9.692;2023-06-05T04:07:01;9.20;79.00
13992;DHT22;7070;53.586;9.692;2023-06-05T04:09:28;9.30;79.10
13992;DHT22;7070;53.586;9.692;2023-06-05T04:11:55;9.30;79.10
13992;DHT22;7070;53.586;9.692;2023-06-05T04:14:23;9.30;79.10
13992;DHT22;7070;53.586;9.692;2023-06-05T04:16:50;9.40;79.20
13992;DHT22;7070;53.586;9.692;2023-06-05T04:19:17;9.30;79.10
13992;DHT22;7070;53.586;9.692;2023-06-05T04:21:44;9.40;79.30
13992;DHT22;7070;53.586;9.692;2023-06-05T04:24:11;9.40;79.20
13992;DHT22;7070;53.586;9.692;2023-06-05T04:26:39;9.50;79.30
13992;DHT22;7070;53.586;9.692;2023-06-05T04:29:06;9.60;79.40
13992;DHT22;7070;53.586;9.692;2023-06-05T04:31:40;9.60;79.40
13992;DHT22;7070;53.586;9.692;2023-06-05T04:34:07;9.70;79.60
13992;DHT22;7070;53.586;9.692;2023-06-05T04:36:34;9.80;80.10
13992;DHT22;7070;53.586;9.692;2023-06-05T04:39:02;10.00;80.10
13992;DHT22;7070;53.586;9.692;2023-06-05T04:41:29;10.20;79.60
13992;DHT22;7070;53.586;9.692;2023-06-05T04:43:58;10.50;80.10
13992;DHT22;7070;53.586;9.692;2023-06-05T04:46:25;10.60;80.00
13992;DHT22;7070;53.586;9.692;2023-06-05T04:48:54;10.80;80.00
13992;DHT22;7070;53.586;9.692;2023-06-05T04:51:23;11.00;80.00
13992;DHT22;7070;53.586;9.692;2023-06-05T04:53:49;11.20;80.00
13992;DHT22;7070;53.586;9.692;2023-06-05T04:56:18;11.30;79.80
13992;DHT22;7070;53.586;9.692;2023-06-05T04:58:47;11.50;79.70
13992;DHT22;7070;53.586;9.692;2023-06-05T05:01:16;11.70;79.50
13992;DHT22;7070;53.586;9.692;2023-06-05T05:03:43;11.80;79.40
13992;DHT22;7070;53.586;9.692;2023-06-05T05:06:14;11.90;79.10
13992;DHT22;7070;53.586;9.692;2023-06-05T05:08:42;12.20;78.90
13992;DHT22;7070;53.586;9.692;2023-06-05T05:11:11;12.30;78.60
13992;DHT22;7070;53.586;9.692;2023-06-05T05:13:38;12.40;78.40
13992;DHT22;7070;53.586;9.692;2023-06-05T05:16:05;12.50;78.10
13992;DHT22;7070;53.586;9.692;2023-06-05T05:18:33;12.70;77.90
13992;DHT22;7070;53.586;9.692;2023-06-05T05:21:00;12.80;77.60
13992;DHT22;7070;53.586;9.692;2023-06-05T05:23:29;12.90;77.50
13992;DHT22;7070;53.586;9.692;2023-06-05T05:25:56;13.10;77.30
13992;DHT22;7070;53.586;9.692;2023-06-05T05:28:22;13.10;77.00
13992;DHT22;7070;53.586;9.692;2023-06-05T05:30:51;13.30;76.90
13992;DHT22;7070;53.586;9.692;2023-06-05T05:33:18;13.50;76.80
13992;DHT22;7070;53.586;9.692;2023-06-05T05:35:46;13.60;76.50
13992;DHT22;7070;53.586;9.692;2023-06-05T05:38:13;13.60;76.10
13992;DHT22;7070;53.586;9.692;2023-06-05T05:40:42;13.80;75.70
13992;DHT22;7070;53.586;9.692;2023-06-05T05:43:09;13.90;75.50
13992;DHT22;7070;53.586;9.692;2023-06-05T05:45:36;13.90;75.40
13992;DHT22;7070;53.586;9.692;2023-06-05T05:48:04;14.10;75.50
13992;DHT22;7070;53.586;9.692;2023-06-05T05:50:31;14.20;75.30
13992;DHT22;7070;53.586;9.692;2023-06-05T05:52:58;14.30;75.00
13992;DHT22;7070;53.586;9.692;2023-06-05T05:55:25;14.30;74.80
13992;DHT22;7070;53.586;9.692;2023-06-05T05:57:54;14.50;74.80
13992;DHT22;7070;53.586;9.692;2023-06-05T06:00:21;14.60;74.70
13992;DHT22;7070;53.586;9.692;2023-06-05T06:02:48;14.70;74.70
13992;DHT22;7070;53.586;9.692;2023-06-05T06:05:15;14.80;74.50
13992;DHT22;7070;53.586;9.692;2023-06-05T06:07:43;14.90;74.50
13992;DHT22;7070;53.586;9.692;2023-06-05T06:10:10;15.00;74.50
13992;DHT22;7070;53.586;9.692;2023-06-05T06:12:37;15.20;74.30
13992;DHT22;7070;53.586;9.692;2023-06-05T06:15:07;15.30;74.00
13992;DHT22;7070;53.586;9.692;2023-06-05T06:17:34;15.30;73.80
13992;DHT22;7070;53.586;9.692;2023-06-05T06:20:02;15.50;73.80
13992;DHT22;7070;53.586;9.692;2023-06-05T06:22:30;15.70;73.70
13992;DHT22;7070;53.586;9.692;2023-06-05T06:24:56;15.80;73.40
13992;DHT22;7070;53.586;9.692;2023-06-05T06:27:23;15.80;73.10
13992;DHT22;7070;53.586;9.692;2023-06-05T06:29:51;15.90;72.80
13992;DHT22;7070;53.586;9.692;2023-06-05T06:32:20;16.00;72.50
13992;DHT22;7070;53.586;9.692;2023-06-05T06:34:47;16.10;72.30
13992;DHT22;7070;53.586;9.692;2023-06-05T06:37:14;16.10;72.30
13992;DHT22;7070;53.586;9.692;2023-06-05T06:39:41;16.20;72.40
13992;DHT22;7070;53.586;9.692;2023-06-05T06:42:09;16.30;72.50
13992;DHT22;7070;53.586;9.692;2023-06-05T06:44:36;16.40;72.50
13992;DHT22;7070;53.586;9.692;2023-06-05T06:47:04;16.50;72.50
13992;DHT22;7070;53.586;9.692;2023-06-05T06:49:33;16.60;72.50
13992;DHT22;7070;53.586;9.692;2023-06-05T06:52:00;16.80;72.10
13992;DHT22;7070;53.586;9.692;2023-06-05T06:54:27;17.00;71.80
13992;DHT22;7070;53.586;9.692;2023-06-05T06:56:54;17.00;71.40
13992;DHT22;7070;53.586;9.692;2023-06-05T06:59:21;17.10;71.20
13992;DHT22;7070;53.586;9.692;2023-06-05T07:02:08;17.10;71.00
13992;DHT22;7070;53.586;9.692;2023-06-05T07:04:36;17.20;70.90
13992;DHT22;7070;53.586;9.692;2023-06-05T07:07:04;17.30;71.00
13992;DHT22;7070;53.586;9.692;2023-06-05T07:09:31;17.30;70.70
13992;DHT22;7070;53.586;9.692;2023-06-05T07:11:58;17.30;70.30
13992;DHT22;7070;53.586;9.692;2023-06-05T07:14:30;17.30;70.30
13992;DHT22;7070;53.586;9.692;2023-06-05T07:16:57;17.30;70.20
13992;DHT22;7070;53.586;9.692;2023-06-05T07:19:25;17.30;70.30
13992;DHT22;7070;53.586;9.692;2023-06-05T07:21:54;17.30;70.10
13992;DHT22;7070;53.586;9.692;2023-06-05T07:24:21;17.30;70.00
13992;DHT22;7070;53.586;9.692;2023-06-05T07:26:50;17.30;69.90
13992;DHT22;7070;53.586;9.692;2023-06-05T07:29:17;17.30;70.00
13992;DHT22;7070;53.586;9.692;2023-06-05T07:31:46;17.30;70.10
13992;DHT22;7070;53.586;9.692;2023-06-05T07:34:12;17.30;70.00
13992;DHT22;7070;53.586;9.692;2023-06-05T07:36:40;17.40;70.00
13992;DHT22;7070;53.586;9.692;2023-06-05T07:39:09;17.40;69.80
13992;DHT22;7070;53.586;9.692;2023-06-05T07:41:37;17.40;69.60
13992;DHT22;7070;53.586;9.692;2023-06-05T07:44:05;17.40;69.70
13992;DHT22;7070;53.586;9.692;2023-06-05T07:46:32;17.50;69.70
13992;DHT22;7070;53.586;9.692;2023-06-05T07:48:59;17.50;69.70
13992;DHT22;7070;53.586;9.692;2023-06-05T07:51:26;17.50;69.60
13992;DHT22;7070;53.586;9.692;2023-06-05T07:53:52;17.50;69.60
13992;DHT22;7070;53.586;9.692;2023-06-05T07:56:20;17.60;69.50
13992;DHT22;7070;53.586;9.692;2023-06-05T07:58:49;17.60;69.10
13992;DHT22;7070;53.586;9.692;2023-06-05T08:01:17;17.70;69.10
13992;DHT22;7070;53.586;9.692;2023-06-05T08:03:43;17.70;69.10
13992;DHT22;7070;53.586;9.692;2023-06-05T08:06:11;17.70;69.10
13992;DHT22;7070;53.586;9.692;2023-06-05T08:08:37;17.80;69.30
13992;DHT22;7070;53.586;9.692;2023-06-05T08:11:04;17.80;69.20
13992;DHT22;7070;53.586;9.692;2023-06-05T08:13:32;17.90;69.40
13992;DHT22;7070;53.586;9.692;2023-06-05T08:15:59;17.90;69.20
13992;DHT22;7070;53.586;9.692;2023-06-05T08:18:26;18.00;69.20
13992;DHT22;7070;53.586;9.692;2023-06-05T08:20:53;18.00;69.10
13992;DHT22;7070;53.586;9.692;2023-06-05T08:23:20;18.10;68.90
13992;DHT22;7070;53.586;9.692;2023-06-05T08:25:46;18.10;68.70
13992;DHT22;7070;53.586;9.692;2023-06-05T08:28:14;18.20;68.60
13992;DHT22;7070;53.586;9.692;2023-06-05T08:30:42;18.20;68.30
13992;DHT22;7070;53.586;9.692;2023-06-05T08:33:10;18.30;68.20
13992;DHT22;7070;53.586;9.692;2023-06-05T08:35:39;18.30;68.20
13992;DHT22;7070;53.586;9.692;2023-06-05T08:38:06;18.40;68.30
13992;DHT22;7070;53.586;9.692;2023-06-05T08:40:34;18.50;68.40
13992;DHT22;7070;53.586;9.692;2023-06-05T08:43:02;18.50;68.10
13992;DHT22;7070;53.586;9.692;2023-06-05T08:45:30;18.60;68.00
13992;DHT22;7070;53.586;9.692;2023-06-05T08:47:59;18.70;68.00
13992;DHT22;7070;53.586;9.692;2023-06-05T08:50:28;18.70;68.00
13992;DHT22;7070;53.586;9.692;2023-06-05T08:52:57;18.80;67.70
13992;DHT22;7070;53.586;9.692;2023-06-05T08:55:26;18.90;67.60
13992;DHT22;7070;53.586;9.692;2023-06-05T08:57:53;18.90;67.40
13992;DHT22;7070;53.586;9.692;2023-06-05T09:00:21;19.00;67.30
13992;DHT22;7070;53.586;9.692;2023-06-05T09:02:48;19.00;67.30
13992;DHT22;7070;53.586;9.692;2023-06-05T09:05:17;19.10;67.40
13992;DHT22;7070;53.586;9.692;2023-06-05T09:07:44;19.10;67.30
13992;DHT22;7070;53.586;9.692;2023-06-05T09:10:24;19.20;67.30
13992;DHT22;7070;53.586;9.692;2023-06-05T09:12:55;19.30;67.30
13992;DHT22;7070;53.586;9.692;2023-06-05T09:15:24;19.40;67.20
13992;DHT22;7070;53.586;9.692;2023-06-05T09:18:04;19.50;67.00
13992;DHT22;7070;53.586;9.692;2023-06-05T09:20:36;19.60;67.00
13992;DHT22;7070;53.586;9.692;2023-06-05T09:23:03;19.70;67.50
13992;DHT22;7070;53.586;9.692;2023-06-05T09:25:49;19.70;66.40
13992;DHT22;7070;53.586;9.692;2023-06-05T09:28:17;19.80;66.20
13992;DHT22;7070;53.586;9.692;2023-06-05T09:30:54;19.80;65.80
13992;DHT22;7070;53.586;9.692;2023-06-05T09:33:21;19.90;65.80
13992;DHT22;7070;53.586;9.692;2023-06-05T09:36:01;20.00;65.80
13992;DHT22;7070;53.586;9.692;2023-06-05T09:38:29;20.00;65.80
13992;DHT22;7070;53.586;9.692;2023-06-05T09:41:01;20.10;66.60
13992;DHT22;7070;53.586;9.692;2023-06-05T09:43:29;20.10;65.90
13992;DHT22;7070;53.586;9.692;2023-06-05T09:45:55;20.20;65.70
13992;DHT22;7070;53.586;9.692;2023-06-05T09:48:22;20.30;65.60
13992;DHT22;7070;53.586;9.692;2023-06-05T09:50:52;20.40;65.50
13992;DHT22;7070;53.586;9.692;2023-06-05T09:53:20;20.40;65.30
13992;DHT22;7070;53.586;9.692;2023-06-05T09:55:48;20.50;65.30
13992;DHT22;7070;53.586;9.692;2023-06-05T09:58:16;20.60;65.30
13992;DHT22;7070;53.586;9.692;2023-06-05T10:00:44;20.70;65.10
13992;DHT22;7070;53.586;9.692;2023-06-05T10:03:14;20.70;65.00
13992;DHT22;7070;53.586;9.692;2023-06-05T10:05:44;20.80;64.90
13992;DHT22;7070;53.586;9.692;2023-06-05T10:08:12;20.90;64.80
13992;DHT22;7070;53.586;9.692;2023-06-05T10:10:41;20.90;64.50
13992;DHT22;7070;53.586;9.692;2023-06-05T10:13:09;21.00;64.50
13992;DHT22;7070;53.586;9.692;2023-06-05T10:15:38;21.10;64.30
13992;DHT22;7070;53.586;9.692;2023-06-05T10:18:06;21.10;64.10
13992;DHT22;7070;53.586;9.692;2023-06-05T10:20:35;21.20;64.10
13992;DHT22;7070;53.586;9.692;2023-06-05T10:23:04;21.30;63.90
13992;DHT22;7070;53.586;9.692;2023-06-05T10:25:34;21.30;63.70
13992;DHT22;7070;53.586;9.692;2023-06-05T10:28:26;21.40;63.60
13992;DHT22;7070;53.586;9.692;2023-06-05T10:31:24;21.40;63.60
13992;DHT22;7070;53.586;9.692;2023-06-05T10:34:14;21.50;63.40
13992;DHT22;7070;53.586;9.692;2023-06-05T10:37:12;21.50;63.00
13992;DHT22;7070;53.586;9.692;2023-06-05T10:39:48;21.60;63.00
13992;DHT22;7070;53.586;9.692;2023-06-05T10:42:24;21.60;62.70
13992;DHT22;7070;53.586;9.692;2023-06-05T10:44:52;21.60;63.80
13992;DHT22;7070;53.586;9.692;2023-06-05T10:47:52;21.70;62.70
13992;DHT22;7070;53.586;9.692;2023-06-05T10:50:24;21.70;63.00
13992;DHT22;7070;53.586;9.692;2023-06-05T10:52:54;21.80;63.30
13992;DHT22;7070;53.586;9.692;2023-06-05T10:55:23;21.90;63.20
13992;DHT22;7070;53.586;9.692;2023-06-05T10:58:09;21.90;62.80
13992;DHT22;7070;53.586;9.692;2023-06-05T11:03:54;22.10;62.60
13992;DHT22;7070;53.586;9.692;2023-06-05T11:06:21;22.10;62.30
13992;DHT22;7070;53.586;9.692;2023-06-05T11:09:10;22.10;62.20
13992;DHT22;7070;53.586;9.692;2023-06-05T11:11:57;22.20;62.30
13992;DHT22;7070;53.586;9.692;2023-06-05T11:14:45;22.30;62.50
13992;DHT22;7070;53.586;9.692;2023-06-05T11:17:31;22.30;62.20
13992;DHT22;7070;53.586;9.692;2023-06-05T11:19:58;22.40;62.00
13992;DHT22;7070;53.586;9.692;2023-06-05T11:22:24;22.50;61.40
13992;DHT22;7070;53.586;9.692;2023-06-05T11:25:24;22.50;61.40
13992;DHT22;7070;53.586;9.692;2023-06-05T11:27:53;22.70;61.40
13992;DHT22;7070;53.586;9.692;2023-06-05T11:30:23;22.70;61.30
13992;DHT22;7070;53.586;9.692;2023-06-05T11:32:52;22.80;61.30
13992;DHT22;7070;53.586;9.692;2023-06-05T11:35:25;22.80;60.80
13992;DHT22;7070;53.586;9.692;2023-06-05T11:38:07;22.90;60.70
13992;DHT22;7070;53.586;9.692;2023-06-05T11:40:34;22.90;60.60
13992;DHT22;7070;53.586;9.692;2023-06-05T11:43:02;22.90;60.20
13992;DHT22;7070;53.586;9.692;2023-06-05T11:45:32;23.00;60.50
13992;DHT22;7070;53.586;9.692;2023-06-05T11:48:06;23.00;60.50
13992;DHT22;7070;53.586;9.692;2023-06-05T11:50:34;23.00;60.60
13992;DHT22;7070;53.586;9.692;2023-06-05T11:53:05;23.10;60.30
13992;DHT22;7070;53.586;9.692;2023-06-05T11:55:32;23.10;60.60
13992;DHT22;7070;53.586;9.692;2023-06-05T11:58:09;23.10;60.30
13992;DHT22;7070;53.586;9.692;2023-06-05T12:00:38;23.20;60.40
13992;DHT22;7070;53.586;9.692;2023-06-05T12:03:04;23.20;60.50
13992;DHT22;7070;53.586;9.692;2023-06-05T12:05:31;23.30;60.70
13992;DHT22;7070;53.586;9.692;2023-06-05T12:08:21;23.40;60.50
13992;DHT22;7070;53.586;9.692;2023-06-05T12:10:48;23.50;60.60
13992;DHT22;7070;53.586;9.692;2023-06-05T12:13:15;23.60;59.90
13992;DHT22;7070;53.586;9.692;2023-06-05T12:15:44;23.70;59.40
13992;DHT22;7070;53.586;9.692;2023-06-05T12:18:30;23.80;59.00
13992;DHT22;7070;53.586;9.692;2023-06-05T12:20:57;23.80;58.40
13992;DHT22;7070;53.586;9.692;2023-06-05T12:23:24;23.90;58.50
13992;DHT22;7070;53.586;9.692;2023-06-05T12:25:58;23.90;58.40
13992;DHT22;7070;53.586;9.692;2023-06-05T12:28:25;23.90;58.90
13992;DHT22;7070;53.586;9.692;2023-06-05T12:30:54;24.00;58.80
13992;DHT22;7070;53.586;9.692;2023-06-05T12:33:21;24.00;58.60
13992;DHT22;7070;53.586;9.692;2023-06-05T12:36:02;24.10;57.90
13992;DHT22;7070;53.586;9.692;2023-06-05T12:38:29;24.20;58.00
13992;DHT22;7070;53.586;9.692;2023-06-05T12:40:56;24.20;57.20
13992;DHT22;7070;53.586;9.692;2023-06-05T12:43:23;24.30;57.90
13992;DHT22;7070;53.586;9.692;2023-06-05T12:45:50;24.30;57.80
13992;DHT22;7070;53.586;9.692;2023-06-05T12:48:19;24.30;58.00
13992;DHT22;7070;53.586;9.692;2023-06-05T12:50:48;24.40;58.20
13992;DHT22;7070;53.586;9.692;2023-06-05T12:53:15;24.40;58.20
13992;DHT22;7070;53.586;9.692;2023-06-05T12:55:42;24.40;58.50
13992;DHT22;7070;53.586;9.692;2023-06-05T12:58:08;24.60;58.90
13992;DHT22;7070;53.586;9.692;2023-06-05T13:00:35;24.70;59.20
13992;DHT22;7070;53.586;9.692;2023-06-05T13:03:02;24.90;59.50
13992;DHT22;7070;53.586;9.692;2023-06-05T13:05:31;25.10;59.50
13992;DHT22;7070;53.586;9.692;2023-06-05T13:07:58;25.20;59.10
13992;DHT22;7070;53.586;9.692;2023-06-05T13:10:25;25.40;58.80
13992;DHT22;7070;53.586;9.692;2023-06-05T13:12:52;25.50;58.00
13992;DHT22;7070;53.586;9.692;2023-06-05T13:15:19;25.70;58.20
13992;DHT22;7070;53.586;9.692;2023-06-05T13:17:46;25.80;58.40
13992;DHT22;7070;53.586;9.692;2023-06-05T13:20:13;25.80;58.30
13992;DHT22;7070;53.586;9.692;2023-06-05T13:22:41;26.00;58.10
13992;DHT22;7070;53.586;9.692;2023-06-05T13:25:09;26.10;58.10
13992;DHT22;7070;53.586;9.692;2023-06-05T13:27:36;26.20;57.20
13992;DHT22;7070;53.586;9.692;2023-06-05T13:30:03;26.20;57.10
13992;DHT22;7070;53.586;9.692;2023-06-05T13:32:32;26.30;57.20
13992;DHT22;7070;53.586;9.692;2023-06-05T13:35:00;26.20;57.00
13992;DHT22;7070;53.586;9.692;2023-06-05T13:37:27;26.20;56.80
13992;DHT22;7070;53.586;9.692;2023-06-05T13:39:55;26.20;56.90
13992;DHT22;7070;53.586;9.692;2023-06-05T13:42:22;26.20;57.10
13992;DHT22;7070;53.586;9.692;2023-06-05T13:44:49;26.10;57.00
13992;DHT22;7070;53.586;9.692;2023-06-05T13:47:16;26.10;56.80
13992;DHT22;7070;53.586;9.692;2023-06-05T13:49:43;26.10;56.60
13992;DHT22;7070;53.586;9.692;2023-06-05T13:52:10;26.00;56.80
13992;DHT22;7070;53.586;9.692;2023-06-05T13:54:37;26.00;56.90
13992;DHT22;7070;53.586;9.692;2023-06-05T13:57:05;25.90;56.80
13992;DHT22;7070;53.586;9.692;2023-06-05T13:59:32;25.80;57.00
13992;DHT22;7070;53.586;9.692;2023-06-05T14:01:59;25.80;56.90
13992;DHT22;7070;53.586;9.692;2023-06-05T14:04:26;25.80;56.80
13992;DHT22;7070;53.586;9.692;2023-06-05T14:06:54;25.70;56.50
13992;DHT22;7070;53.586;9.692;2023-06-05T14:09:23;25.70;56.50
13992;DHT22;7070;53.586;9.692;2023-06-05T14:11:50;25.60;56.50
13992;DHT22;7070;53.586;9.692;2023-06-05T14:14:18;25.60;56.90
13992;DHT22;7070;53.586;9.692;2023-06-05T14:16:45;25.50;57.20
13992;DHT22;7070;53.586;9.692;2023-06-05T14:19:12;25.50;57.20
13992;DHT22;7070;53.586;9.692;2023-06-05T14:21:39;25.40;57.40
13992;DHT22;7070;53.586;9.692;2023-06-05T14:24:07;25.40;56.70
13992;DHT22;7070;53.586;9.692;2023-06-05T14:26:34;25.40;56.80
13992;DHT22;7070;53.586;9.692;2023-06-05T14:29:01;25.40;56.90
13992;DHT22;7070;53.586;9.692;2023-06-05T14:31:29;25.30;56.90
13992;DHT22;7070;53.586;9.692;2023-06-05T14:33:56;25.30;56.30
13992;DHT22;7070;53.586;9.692;2023-06-05T14:36:23;25.30;56.30
13992;DHT22;7070;53.586;9.692;2023-06-05T14:38:51;25.20;56.40
13992;DHT22;7070;53.586;9.692;2023-06-05T14:41:18;25.20;56.50
13992;DHT22;7070;53.586;9.692;2023-06-05T14:43:44;25.10;56.30
13992;DHT22;7070;53.586;9.692;2023-06-05T14:46:11;25.10;56.50
13992;DHT22;7070;53.586;9.692;2023-06-05T14:48:40;25.10;56.60
13992;DHT22;7070;53.586;9.692;2023-06-05T14:51:10;25.00;56.30
13992;DHT22;7070;53.586;9.692;2023-06-05T14:53:37;25.00;56.50
13992;DHT22;7070;53.586;9.692;2023-06-05T14:56:04;25.00;56.80
13992;DHT22;7070;53.586;9.692;2023-06-05T14:58:31;24.90;56.70
13992;DHT22;7070;53.586;9.692;2023-06-05T15:00:58;24.90;56.80
13992;DHT22;7070;53.586;9.692;2023-06-05T15:03:25;24.90;56.50
13992;DHT22;7070;53.586;9.692;2023-06-05T15:05:54;24.90;56.70
13992;DHT22;7070;53.586;9.692;2023-06-05T15:08:21;24.80;56.70
13992;DHT22;7070;53.586;9.692;2023-06-05T15:10:48;24.80;56.30
13992;DHT22;7070;53.586;9.692;2023-06-05T15:13:15;24.70;56.40
13992;DHT22;7070;53.586;9.692;2023-06-05T15:15:43;24.70;56.70
13992;DHT22;7070;53.586;9.692;2023-06-05T15:18:09;24.60;56.60
13992;DHT22;7070;53.586;9.692;2023-06-05T15:20:36;24.60;57.30
13992;DHT22;7070;53.586;9.692;2023-06-05T15:23:04;24.60;56.80
13992;DHT22;7070;53.586;9.692;2023-06-05T15:25:31;24.50;56.60
13992;DHT22;7070;53.586;9.692;2023-06-05T15:27:59;24.40;56.60
13992;DHT22;7070;53.586;9.692;2023-06-05T15:30:26;24.40;56.90
13992;DHT22;7070;53.586;9.692;2023-06-05T15:32:53;24.30;57.00
13992;DHT22;7070;53.586;9.692;2023-06-05T15:35:19;24.30;57.10
13992;DHT22;7070;53.586;9.692;2023-06-05T15:37:46;24.30;57.30
13992;DHT22;7070;53.586;9.692;2023-06-05T15:40:15;24.20;57.30
13992;DHT22;7070;53.586;9.692;2023-06-05T15:42:43;24.20;57.20
13992;DHT22;7070;53.586;9.692;2023-06-05T15:45:11;24.20;57.40
13992;DHT22;7070;53.586;9.692;2023-06-05T15:47:39;24.20;57.40
13992;DHT22;7070;53.586;9.692;2023-06-05T15:50:07;24.10;57.30
13992;DHT22;7070;53.586;9.692;2023-06-05T15:52:35;24.10;57.50
13992;DHT22;7070;53.586;9.692;2023-06-05T15:55:02;24.10;57.60
13992;DHT22;7070;53.586;9.692;2023-06-05T15:57:31;24.00;57.60
13992;DHT22;7070;53.586;9.692;2023-06-05T15:59:58;24.00;57.80
13992;DHT22;7070;53.586;9.692;2023-06-05T16:02:24;24.00;57.90